Time;durP1;ratioP1;P1;durP2;ratioP2;P2;SDS_P1;SDS_P2;PMS_P1;PMS_P2;Temp;Humidity;BMP_temperature;BMP_pressure;BME280_temperature;BME280_humidity;BME280_pressure;Samples;Min_cycle;Max_cycle;Signal;HPM_P1;HPM_P2
2022/11/27 18:06:03;;;;;;;;;;;11.40;99.90;;;;;;6267793;22;19934;-88
2022/11/27 18:08:28;;;;;;;;;;;11.40;99.90;;;;;;6245518;22;20346;-88
2022/11/27 18:10:54;;;;;;;;;;;11.30;99.90;;;;;;6242713;22;19910;-88
2022/11/27 18:13:20;;;;;;;;;;;11.40;99.90;;;;;;6241963;22;19910;-87
2022/11/27 18:15:46;;;;;;;;;;;11.30;99.90;;;;;;6239934;22;20354;-91
2022/11/27 18:18:11;;;;;;;;;;;11.20;99.90;;;;;;6242993;22;19903;-87
2022/11/27 18:20:37;;;;;;;;;;;11.20;99.90;;;;;;6242916;22;19995;-89
2022/11/27 18:23:03;;;;;;;;;;;11.30;99.90;;;;;;6269808;22;19904;-87
2022/11/27 18:25:29;;;;;;;;;;;11.10;99.90;;;;;;6271301;22;19904;-89
2022/11/27 18:27:56;;;;;;;;;;;11.10;99.90;;;;;;6270800;22;19938;-89
2022/11/27 18:30:23;;;;;;;;;;;11.00;99.90;;;;;;6270567;22;19907;-87
2022/11/27 18:32:48;;;;;;;;;;;10.90;99.90;;;;;;6243618;22;20278;-86
2022/11/27 18:35:14;;;;;;;;;;;10.80;99.90;;;;;;6270823;22;19903;-89
2022/11/27 18:37:39;;;;;;;;;;;10.80;99.90;;;;;;6243920;22;20243;-88
2022/11/27 18:40:06;;;;;;;;;;;10.80;99.90;;;;;;6243398;22;19911;-87
2022/11/27 18:42:31;;;;;;;;;;;10.70;99.90;;;;;;6271071;22;19925;-88
2022/11/27 18:44:57;;;;;;;;;;;10.70;99.90;;;;;;6244474;22;20300;-90
2022/11/27 18:47:23;;;;;;;;;;;10.50;99.90;;;;;;6270282;22;19911;-88
2022/11/27 18:49:48;;;;;;;;;;;10.50;99.90;;;;;;6243485;22;19910;-87
2022/11/27 18:52:14;;;;;;;;;;;10.60;99.90;;;;;;6245303;22;19903;-87
2022/11/27 18:54:39;;;;;;;;;;;10.70;99.90;;;;;;6246030;22;19903;-87
2022/11/27 18:57:05;;;;;;;;;;;10.60;99.90;;;;;;6245156;22;19904;-88
2022/11/27 18:59:32;;;;;;;;;;;10.60;99.90;;;;;;6271771;22;19904;-86
2022/11/27 19:01:58;;;;;;;;;;;10.60;99.90;;;;;;6273113;22;19930;-87
2022/11/27 19:04:23;;;;;;;;;;;10.60;99.90;;;;;;6272536;22;20315;-85
2022/11/27 19:06:49;;;;;;;;;;;10.70;99.90;;;;;;6272347;22;19918;-85
2022/11/27 19:09:14;;;;;;;;;;;10.60;99.90;;;;;;6270936;22;19949;-92
2022/11/27 19:11:40;;;;;;;;;;;10.60;99.90;;;;;;6270576;22;19904;-86
2022/11/27 19:14:06;;;;;;;;;;;10.70;99.90;;;;;;6271277;22;19933;-85
2022/11/27 19:16:33;;;;;;;;;;;10.70;99.90;;;;;;6244630;22;20282;-85
2022/11/27 19:19:00;;;;;;;;;;;10.70;99.90;;;;;;6271731;22;19977;-86
2022/11/27 19:21:26;;;;;;;;;;;10.60;99.90;;;;;;6244684;22;19965;-87
2022/11/27 19:23:52;;;;;;;;;;;10.60;99.90;;;;;;6272805;22;20155;-86
2022/11/27 19:26:19;;;;;;;;;;;10.60;99.90;;;;;;6271456;22;20354;-87
2022/11/27 19:28:48;;;;;;;;;;;10.70;99.90;;;;;;6272779;22;19934;-87
2022/11/27 19:31:15;;;;;;;;;;;10.70;99.90;;;;;;6271264;22;19949;-88
2022/11/27 19:33:41;;;;;;;;;;;10.70;99.90;;;;;;6272086;22;19957;-88
2022/11/27 19:36:08;;;;;;;;;;;10.90;99.90;;;;;;6271554;22;19908;-87
2022/11/27 19:38:34;;;;;;;;;;;10.90;99.90;;;;;;6244747;22;19938;-87
2022/11/27 19:41:00;;;;;;;;;;;10.80;99.90;;;;;;6273255;22;19949;-88
2022/11/27 19:43:25;;;;;;;;;;;10.80;99.90;;;;;;6272110;22;19903;-88
2022/11/27 19:45:51;;;;;;;;;;;10.90;99.90;;;;;;6272290;22;20293;-89
2022/11/27 19:48:16;;;;;;;;;;;10.90;99.90;;;;;;6244347;22;20001;-86
2022/11/27 19:50:42;;;;;;;;;;;10.90;99.90;;;;;;6271847;22;19939;-85
2022/11/27 19:53:08;;;;;;;;;;;11.00;99.90;;;;;;6271350;22;19914;-86
2022/11/27 19:55:33;;;;;;;;;;;11.00;99.90;;;;;;6272424;22;19910;-85
2022/11/27 19:57:59;;;;;;;;;;;11.00;99.90;;;;;;6272979;22;19903;-85
2022/11/27 20:00:25;;;;;;;;;;;11.10;99.90;;;;;;6245095;22;19985;-86
2022/11/27 20:02:50;;;;;;;;;;;11.00;99.90;;;;;;6271928;22;19910;-85
2022/11/27 20:05:16;;;;;;;;;;;11.00;99.90;;;;;;6270630;22;19903;-86
2022/11/27 20:07:41;;;;;;;;;;;11.00;99.90;;;;;;6271424;22;19915;-86
2022/11/27 20:10:07;;;;;;;;;;;10.90;99.90;;;;;;6271129;22;19949;-86
2022/11/27 20:12:35;;;;;;;;;;;11.00;99.90;;;;;;6273164;22;19988;-86
2022/11/27 20:15:02;;;;;;;;;;;11.00;99.90;;;;;;6271846;22;20357;-86
2022/11/27 20:17:28;;;;;;;;;;;10.90;99.90;;;;;;6269814;22;19915;-85
2022/11/27 20:19:54;;;;;;;;;;;10.80;99.90;;;;;;6270896;22;19914;-87
2022/11/27 20:22:19;;;;;;;;;;;10.80;99.90;;;;;;6272787;22;19903;-86
2022/11/27 20:24:45;;;;;;;;;;;10.80;99.90;;;;;;6245219;22;19909;-87
2022/11/27 20:27:10;;;;;;;;;;;10.80;99.90;;;;;;6271851;22;19911;-87
2022/11/27 20:29:36;;;;;;;;;;;10.80;99.90;;;;;;6244205;22;19935;-86
2022/11/27 20:32:01;;;;;;;;;;;10.90;99.90;;;;;;6271623;22;20327;-86
2022/11/27 20:34:27;;;;;;;;;;;10.80;99.90;;;;;;6271205;22;19907;-86
2022/11/27 20:36:53;;;;;;;;;;;10.80;99.90;;;;;;6271068;22;20218;-86
2022/11/27 20:39:18;;;;;;;;;;;10.80;99.90;;;;;;6270989;22;19955;-85
2022/11/27 20:41:44;;;;;;;;;;;10.90;99.90;;;;;;6271634;22;19941;-85
2022/11/27 20:44:10;;;;;;;;;;;10.90;99.90;;;;;;6272114;22;20273;-85
2022/11/27 20:46:35;;;;;;;;;;;10.90;99.90;;;;;;6244488;22;19907;-85
2022/11/27 20:49:01;;;;;;;;;;;10.90;99.90;;;;;;6272109;22;20350;-85
2022/11/27 20:51:29;;;;;;;;;;;10.80;99.90;;;;;;6271416;22;19982;-85
2022/11/27 20:53:55;;;;;;;;;;;10.80;99.90;;;;;;6271096;22;20342;-85
2022/11/27 20:56:21;;;;;;;;;;;10.80;99.90;;;;;;6271256;22;19903;-85
2022/11/27 20:58:47;;;;;;;;;;;10.80;99.90;;;;;;6272226;22;19986;-88
2022/11/27 21:01:18;;;;;;;;;;;10.90;99.90;;;;;;6219875;22;20007;-87
2022/11/27 21:03:45;;;;;;;;;;;10.90;99.90;;;;;;6244066;22;19946;-87
2022/11/27 21:06:10;;;;;;;;;;;10.90;99.90;;;;;;6271006;22;19922;-89
2022/11/27 21:08:36;;;;;;;;;;;10.80;99.90;;;;;;6270784;22;19907;-87
2022/11/27 21:11:09;;;;;;;;;;;10.70;99.90;;;;;;6272332;22;19903;-86
2022/11/27 21:13:34;;;;;;;;;;;10.80;99.90;;;;;;6271566;22;19910;-86
2022/11/27 21:16:00;;;;;;;;;;;10.80;99.90;;;;;;6271207;22;19982;-89
2022/11/27 21:18:25;;;;;;;;;;;10.90;99.90;;;;;;6271473;22;19935;-86
2022/11/27 21:20:51;;;;;;;;;;;10.80;99.90;;;;;;6271866;22;19982;-87
2022/11/27 21:23:16;;;;;;;;;;;10.70;99.90;;;;;;6271443;22;20339;-87
2022/11/27 21:25:42;;;;;;;;;;;10.60;99.90;;;;;;6271794;22;20393;-86
2022/11/27 21:28:08;;;;;;;;;;;10.60;99.90;;;;;;6271326;22;20002;-86
2022/11/27 21:30:33;;;;;;;;;;;10.60;99.90;;;;;;6245674;22;19982;-86
2022/11/27 21:32:59;;;;;;;;;;;10.60;99.90;;;;;;6272023;22;19903;-86
2022/11/27 21:35:25;;;;;;;;;;;10.50;99.90;;;;;;6271859;22;19908;-86
2022/11/27 21:37:50;;;;;;;;;;;10.50;99.90;;;;;;6244540;22;20247;-86
2022/11/27 21:40:16;;;;;;;;;;;10.50;99.90;;;;;;6271229;22;19926;-85
2022/11/27 21:42:41;;;;;;;;;;;10.50;99.90;;;;;;6271433;22;20331;-86
2022/11/27 21:45:07;;;;;;;;;;;10.50;99.90;;;;;;6271069;22;20134;-86
2022/11/27 21:47:33;;;;;;;;;;;10.50;99.90;;;;;;6272339;22;19911;-86
2022/11/27 21:49:59;;;;;;;;;;;10.50;99.90;;;;;;6271485;22;19986;-86
2022/11/27 21:52:24;;;;;;;;;;;10.40;99.90;;;;;;6244273;22;19977;-85
2022/11/27 21:54:51;;;;;;;;;;;10.30;99.90;;;;;;6271668;22;19990;-85
2022/11/27 21:57:16;;;;;;;;;;;10.20;99.90;;;;;;6271085;22;19956;-85
2022/11/27 21:59:42;;;;;;;;;;;10.20;99.90;;;;;;6271319;22;19930;-85
2022/11/27 22:02:11;;;;;;;;;;;10.20;99.90;;;;;;6271463;22;20220;-86
2022/11/27 22:04:37;;;;;;;;;;;10.30;99.90;;;;;;6271570;22;20246;-86
2022/11/27 22:07:02;;;;;;;;;;;10.20;99.90;;;;;;6244691;22;19990;-85
2022/11/27 22:09:32;;;;;;;;;;;10.30;99.90;;;;;;6271350;22;19908;-86
2022/11/27 22:11:58;;;;;;;;;;;10.30;99.90;;;;;;6271410;22;19910;-86
2022/11/27 22:14:23;;;;;;;;;;;10.10;99.90;;;;;;6271450;22;19904;-86
2022/11/27 22:16:49;;;;;;;;;;;10.10;99.90;;;;;;6271186;22;19957;-87
2022/11/27 22:19:14;;;;;;;;;;;10.10;99.90;;;;;;6271094;22;19903;-87
2022/11/27 22:21:40;;;;;;;;;;;10.10;99.90;;;;;;6271012;22;19903;-86
2022/11/27 22:24:06;;;;;;;;;;;10.00;99.90;;;;;;6244540;22;19903;-85
2022/11/27 22:26:31;;;;;;;;;;;10.00;99.90;;;;;;6272049;22;19914;-85
2022/11/27 22:28:57;;;;;;;;;;;9.90;99.90;;;;;;6271082;22;19939;-86
2022/11/27 22:31:24;;;;;;;;;;;9.90;99.90;;;;;;6270665;22;19903;-87
2022/11/27 22:33:49;;;;;;;;;;;9.90;99.90;;;;;;6270937;22;20337;-87
2022/11/27 22:36:15;;;;;;;;;;;9.90;99.90;;;;;;6270954;22;19982;-85
2022/11/27 22:38:41;;;;;;;;;;;9.90;99.90;;;;;;6271267;22;19903;-86
2022/11/27 22:41:07;;;;;;;;;;;9.90;99.90;;;;;;6270812;22;19903;-86
2022/11/27 22:43:33;;;;;;;;;;;9.90;99.90;;;;;;6272023;22;19903;-86
2022/11/27 22:45:59;;;;;;;;;;;9.90;99.90;;;;;;6270476;22;19904;-86
2022/11/27 22:48:24;;;;;;;;;;;10.00;99.90;;;;;;6271115;22;19934;-85
2022/11/27 22:50:56;;;;;;;;;;;9.90;99.90;;;;;;6271041;22;19907;-85
2022/11/27 22:53:22;;;;;;;;;;;9.80;99.90;;;;;;6270797;22;19927;-87
2022/11/27 22:55:47;;;;;;;;;;;9.70;99.90;;;;;;6245848;22;19946;-86
2022/11/27 22:58:13;;;;;;;;;;;9.90;99.90;;;;;;6272797;22;19903;-85
2022/11/27 23:00:38;;;;;;;;;;;9.80;99.90;;;;;;6245722;22;19903;-86
2022/11/27 23:03:04;;;;;;;;;;;9.80;99.90;;;;;;6273787;22;20363;-86
2022/11/27 23:05:29;;;;;;;;;;;9.70;99.90;;;;;;6273129;22;19911;-86
2022/11/27 23:07:55;;;;;;;;;;;9.70;99.90;;;;;;6272532;22;19937;-85
2022/11/27 23:10:20;;;;;;;;;;;9.70;99.90;;;;;;6272544;22;19903;-86
2022/11/27 23:12:46;;;;;;;;;;;9.70;99.90;;;;;;6272643;22;19904;-86
2022/11/27 23:15:11;;;;;;;;;;;9.70;99.90;;;;;;6245268;22;19903;-86
2022/11/27 23:17:37;;;;;;;;;;;9.80;99.90;;;;;;6273644;22;19903;-85
2022/11/27 23:20:03;;;;;;;;;;;10.20;99.90;;;;;;6273531;22;19910;-85
2022/11/27 23:22:28;;;;;;;;;;;9.70;99.90;;;;;;6272846;22;19921;-86
2022/11/27 23:24:54;;;;;;;;;;;9.60;99.90;;;;;;6272840;22;19911;-86
2022/11/27 23:27:19;;;;;;;;;;;9.70;99.90;;;;;;6272371;22;19934;-85
2022/11/27 23:29:45;;;;;;;;;;;9.70;99.90;;;;;;6245360;22;19910;-86
2022/11/27 23:32:10;;;;;;;;;;;9.80;99.90;;;;;;6272491;22;19927;-87
2022/11/27 23:34:36;;;;;;;;;;;9.80;99.90;;;;;;6273732;22;19910;-86
2022/11/27 23:37:02;;;;;;;;;;;10.10;99.90;;;;;;6273311;22;20245;-86
2022/11/27 23:39:27;;;;;;;;;;;9.80;99.90;;;;;;6245477;22;20279;-86
2022/11/27 23:41:53;;;;;;;;;;;9.80;99.90;;;;;;6272486;22;19911;-86
2022/11/27 23:44:19;;;;;;;;;;;9.80;99.90;;;;;;6272174;22;19907;-86
2022/11/27 23:46:45;;;;;;;;;;;9.80;99.90;;;;;;6272627;22;19949;-86
2022/11/27 23:49:10;;;;;;;;;;;9.80;99.90;;;;;;6272244;22;19904;-86
2022/11/27 23:51:36;;;;;;;;;;;9.90;99.90;;;;;;6273533;22;19903;-86
2022/11/27 23:54:04;;;;;;;;;;;9.90;99.90;;;;;;6245143;22;19903;-86
2022/11/27 23:56:30;;;;;;;;;;;10.00;99.90;;;;;;6272374;22;19903;-87
2022/11/27 23:58:56;;;;;;;;;;;10.00;99.90;;;;;;6245165;22;19934;-86
